createdAt,value
2022-08-03T00:00:50.257Z,21.61
2022-08-03T00:01:52.498Z,21.58
2022-08-03T00:02:54.832Z,21.57
2022-08-03T00:03:57.139Z,21.55
2022-08-03T00:04:59.327Z,21.54
2022-08-03T00:06:04.089Z,21.51
2022-08-03T00:07:07.277Z,21.49
2022-08-03T00:08:09.505Z,21.47
2022-08-03T00:09:12.093Z,21.45
2022-08-03T00:10:14.510Z,21.43
2022-08-03T00:11:16.803Z,21.42
2022-08-03T00:12:19.163Z,21.39
2022-08-03T00:13:21.496Z,21.38
2022-08-03T00:14:23.666Z,21.35
2022-08-03T00:15:25.991Z,21.33
2022-08-03T00:16:28.325Z,21.32
2022-08-03T00:17:30.647Z,21.30
2022-08-03T00:18:53.012Z,21.28
2022-08-03T00:19:55.270Z,21.25
2022-08-03T00:20:57.852Z,21.24
2022-08-03T00:22:00.239Z,21.21
2022-08-03T00:23:04.665Z,21.20
2022-08-03T00:24:07.111Z,21.17
2022-08-03T00:25:09.396Z,21.17
2022-08-03T00:26:13.560Z,21.14
2022-08-03T00:27:15.823Z,21.12
2022-08-03T00:28:22.094Z,21.11
2022-08-03T00:29:26.087Z,21.10
2022-08-03T00:30:30.827Z,21.07
2022-08-03T00:31:51.462Z,21.07
2022-08-03T00:32:55.869Z,21.05
2022-08-03T00:34:03.481Z,21.03
2022-08-03T00:35:09.792Z,21.03
2022-08-03T00:36:14.615Z,21.01
2022-08-03T00:37:17.587Z,20.99
2022-08-03T00:38:20.522Z,20.99
2022-08-03T00:39:22.722Z,20.96
2022-08-03T00:40:25.060Z,20.96
2022-08-03T00:41:27.610Z,20.95
2022-08-03T00:42:29.809Z,20.94
2022-08-03T00:43:31.993Z,20.92
2022-08-03T00:44:40.948Z,20.90
2022-08-03T00:45:46.248Z,20.90
2022-08-03T00:46:48.522Z,20.89
2022-08-03T00:47:50.841Z,20.88
2022-08-03T00:48:53.451Z,20.86
2022-08-03T00:49:55.918Z,20.84
2022-08-03T00:50:58.893Z,20.83
2022-08-03T00:52:07.806Z,20.82
2022-08-03T00:53:13.638Z,20.80
2022-08-03T00:54:16.170Z,20.78
2022-08-03T00:55:19.118Z,20.76
2022-08-03T00:56:21.467Z,20.76
2022-08-03T00:57:23.661Z,20.74
2022-08-03T00:58:26.040Z,20.73
2022-08-03T00:59:28.319Z,20.71
2022-08-03T01:00:30.527Z,20.70
2022-08-03T01:01:32.917Z,20.68
2022-08-03T01:02:35.268Z,20.69
2022-08-03T01:03:37.470Z,20.68
2022-08-03T01:04:42.154Z,20.67
2022-08-03T01:06:13.432Z,20.66
2022-08-03T01:07:31.607Z,20.64
2022-08-03T01:08:54.596Z,20.62
2022-08-03T01:10:47.862Z,20.59
2022-08-03T01:12:01.710Z,20.58
2022-08-03T01:13:59.143Z,20.57
2022-08-03T01:14:41.433Z,20.56
2022-08-03T01:15:50.517Z,20.54
2022-08-03T01:17:30.090Z,20.52
2022-08-03T01:18:45.243Z,20.50
2022-08-03T01:19:59.604Z,20.48
2022-08-03T01:21:07.688Z,20.47
2022-08-03T01:22:15.945Z,20.46
2022-08-03T01:23:44.370Z,20.44
2022-08-03T01:25:14.878Z,20.40
2022-08-03T01:26:41.987Z,20.38
2022-08-03T01:28:31.101Z,20.36
2022-08-03T01:29:55.283Z,20.34
2022-08-03T01:31:04.014Z,20.32
2022-08-03T01:32:58.120Z,20.32
2022-08-03T01:33:39.916Z,20.29
2022-08-03T01:34:52.015Z,20.27
2022-08-03T01:36:02.217Z,20.26
2022-08-03T01:37:07.552Z,20.25
2022-08-03T01:38:24.404Z,20.23
2022-08-03T01:39:30.450Z,20.20
2022-08-03T01:40:35.426Z,20.19
2022-08-03T01:41:44.855Z,20.18
2022-08-03T01:42:48.507Z,20.16
2022-08-03T01:44:26.681Z,20.15
2022-08-03T01:45:19.090Z,20.13
2022-08-03T01:46:23.692Z,20.13
2022-08-03T01:47:30.075Z,20.12
2022-08-03T01:48:33.502Z,20.11
2022-08-03T01:49:39.970Z,20.09
2022-08-03T01:50:45.856Z,20.08
2022-08-03T01:52:03.702Z,20.08
2022-08-03T01:53:09.298Z,20.07
2022-08-03T01:54:13.607Z,20.06
2022-08-03T01:55:19.699Z,20.04
2022-08-03T01:56:24.848Z,20.03
2022-08-03T01:57:29.606Z,20.03
2022-08-03T01:58:34.327Z,20.03
2022-08-03T01:59:38.842Z,20.02
2022-08-03T02:00:42.251Z,20.01
2022-08-03T02:02:32.252Z,20.00
2022-08-03T02:03:09.821Z,19.98
2022-08-03T02:04:15.605Z,19.98
2022-08-03T02:05:20.599Z,19.97
2022-08-03T02:07:00.362Z,19.96
2022-08-03T02:07:48.384Z,19.96
2022-08-03T02:08:52.757Z,19.95
2022-08-03T02:09:57.368Z,19.93
2022-08-03T02:11:01.066Z,19.91
2022-08-03T02:12:04.463Z,19.92
2022-08-03T02:13:08.758Z,19.90
2022-08-03T02:14:11.755Z,19.89
2022-08-03T02:15:16.681Z,19.88
2022-08-03T02:16:19.615Z,19.88
2022-08-03T02:17:39.045Z,19.87
2022-08-03T02:18:43.191Z,19.86
2022-08-03T02:19:46.527Z,19.86
2022-08-03T02:20:50.327Z,19.86
2022-08-03T02:21:57.172Z,19.85
2022-08-03T02:23:03.497Z,19.83
2022-08-03T02:24:06.383Z,19.85
2022-08-03T02:25:11.133Z,19.82
2022-08-03T02:26:18.901Z,19.81
2022-08-03T02:27:27.199Z,19.80
2022-08-03T02:28:38.709Z,19.78
2022-08-03T02:29:45.836Z,19.79
2022-08-03T02:30:54.077Z,19.76
2022-08-03T02:32:00.305Z,19.76
2022-08-03T02:33:03.166Z,19.75
2022-08-03T02:34:09.913Z,19.76
2022-08-03T02:35:15.295Z,19.74
2022-08-03T02:36:22.468Z,19.73
2022-08-03T02:37:29.182Z,19.72
2022-08-03T02:38:36.005Z,19.70
2022-08-03T02:39:40.916Z,19.70
2022-08-03T02:40:44.855Z,19.70
2022-08-03T02:42:02.279Z,19.67
2022-08-03T02:43:08.911Z,19.67
2022-08-03T02:44:13.736Z,19.67
2022-08-03T02:45:18.312Z,19.67
2022-08-03T02:46:24.794Z,19.68
2022-08-03T02:47:28.731Z,19.67
2022-08-03T02:48:52.529Z,19.67
2022-08-03T02:49:57.458Z,19.67
2022-08-03T02:51:02.453Z,19.65
2022-08-03T02:52:13.216Z,19.65
2022-08-03T02:53:20.030Z,19.65
2022-08-03T02:54:25.188Z,19.66
2022-08-03T02:55:28.639Z,19.65
2022-08-03T02:56:31.757Z,19.64
2022-08-03T02:57:36.457Z,19.64
2022-08-03T02:58:40.682Z,19.65
2022-08-03T02:59:44.383Z,19.64
2022-08-03T03:00:47.654Z,19.62
2022-08-03T03:01:50.848Z,19.61
2022-08-03T03:02:55.208Z,19.61
2022-08-03T03:03:58.305Z,19.59
2022-08-03T03:05:55.200Z,19.58
2022-08-03T03:06:27.028Z,19.56
2022-08-03T03:07:37.249Z,19.54
2022-08-03T03:08:59.651Z,19.53
2022-08-03T03:10:04.622Z,19.51
2022-08-03T03:11:08.641Z,19.49
2022-08-03T03:12:13.194Z,19.48
2022-08-03T03:13:16.289Z,19.47
2022-08-03T03:14:33.190Z,19.45
2022-08-03T03:15:39.444Z,19.42
2022-08-03T03:16:42.916Z,19.41
2022-08-03T03:17:46.502Z,19.40
2022-08-03T03:18:49.978Z,19.39
2022-08-03T03:19:52.720Z,19.37
2022-08-03T03:20:58.730Z,19.35
2022-08-03T03:22:03.142Z,19.34
2022-08-03T03:23:05.774Z,19.33
2022-08-03T03:24:09.917Z,19.32
2022-08-03T03:25:12.412Z,19.30
2022-08-03T03:26:15.790Z,19.30
2022-08-03T03:27:18.651Z,19.27
2022-08-03T03:28:23.279Z,19.26
2022-08-03T03:29:27.909Z,19.25
2022-08-03T03:30:30.428Z,19.22
2022-08-03T03:31:32.797Z,19.22
2022-08-03T03:32:37.377Z,19.18
2022-08-03T03:33:39.710Z,19.17
2022-08-03T03:34:42.748Z,19.16
2022-08-03T03:35:47.471Z,19.15
2022-08-03T03:36:50.846Z,19.13
2022-08-03T03:37:53.257Z,19.13
2022-08-03T03:38:57.812Z,19.11
2022-08-03T03:40:00.010Z,19.10
2022-08-03T03:41:02.655Z,19.08
2022-08-03T03:42:05.581Z,19.07
2022-08-03T03:43:09.044Z,19.07
2022-08-03T03:44:11.438Z,19.05
2022-08-03T03:45:14.423Z,19.03
2022-08-03T03:46:16.930Z,19.02
2022-08-03T03:47:32.724Z,19.01
2022-08-03T03:48:35.265Z,19.00
2022-08-03T03:49:37.906Z,18.99
2022-08-03T03:50:43.199Z,19.00
2022-08-03T03:51:45.434Z,18.98
2022-08-03T03:52:47.677Z,18.98
2022-08-03T03:54:03.707Z,18.96
2022-08-03T03:55:08.301Z,18.96
2022-08-03T03:56:10.683Z,18.94
2022-08-03T03:57:13.793Z,18.94
2022-08-03T03:58:17.273Z,18.94
2022-08-03T03:59:19.540Z,18.94
2022-08-03T04:00:21.813Z,18.94
2022-08-03T04:01:24.119Z,18.93
2022-08-03T04:02:26.545Z,18.92
2022-08-03T04:03:28.875Z,18.92
2022-08-03T04:04:59.840Z,18.91
2022-08-03T04:06:22.830Z,18.91
2022-08-03T04:07:45.335Z,18.90
2022-08-03T04:09:06.273Z,18.89
2022-08-03T04:10:53.407Z,18.88
2022-08-03T04:12:01.221Z,18.88
2022-08-03T04:13:10.085Z,18.87
2022-08-03T04:14:18.471Z,18.88
2022-08-03T04:15:24.249Z,18.86
2022-08-03T04:16:38.797Z,18.90
2022-08-03T04:17:46.540Z,18.89
2022-08-03T04:18:53.928Z,18.90
2022-08-03T04:19:58.004Z,18.90
2022-08-03T04:21:09.835Z,18.90
2022-08-03T04:22:16.929Z,18.91
2022-08-03T04:23:22.953Z,18.91
2022-08-03T04:24:30.978Z,18.90
2022-08-03T04:25:36.912Z,18.91
2022-08-03T04:26:41.917Z,18.92
2022-08-03T04:27:44.742Z,18.93
2022-08-03T04:29:10.764Z,18.96
2022-08-03T04:30:15.359Z,18.96
2022-08-03T04:31:21.441Z,18.99
2022-08-03T04:32:26.400Z,18.99
2022-08-03T04:33:32.602Z,19.02
2022-08-03T04:34:35.857Z,19.03
2022-08-03T04:36:01.779Z,19.05
2022-08-03T04:37:03.109Z,19.08
2022-08-03T04:38:07.756Z,19.10
2022-08-03T04:39:27.801Z,19.15
2022-08-03T04:40:39.816Z,19.19
2022-08-03T04:42:08.171Z,19.23
2022-08-03T04:43:09.176Z,19.30
2022-08-03T04:44:13.848Z,19.34
2022-08-03T04:45:17.637Z,19.39
2022-08-03T04:46:24.421Z,19.43
2022-08-03T04:47:27.202Z,19.49
2022-08-03T04:48:29.633Z,19.55
2022-08-03T04:49:32.602Z,19.62
2022-08-03T04:50:35.490Z,19.68
2022-08-03T04:51:41.041Z,19.75
2022-08-03T04:52:45.679Z,19.83
2022-08-03T04:53:48.028Z,19.90
2022-08-03T04:54:51.121Z,19.99
2022-08-03T04:55:53.375Z,20.07
2022-08-03T04:56:55.582Z,20.14
2022-08-03T04:57:58.982Z,20.22
2022-08-03T04:59:01.206Z,20.31
2022-08-03T05:00:04.902Z,20.40
2022-08-03T05:01:07.378Z,20.48
2022-08-03T05:02:09.717Z,20.57
2022-08-03T05:03:19.556Z,20.65
2022-08-03T05:04:26.239Z,20.74
2022-08-03T05:05:48.848Z,20.84
2022-08-03T05:06:54.913Z,20.96
2022-08-03T05:07:57.474Z,21.06
2022-08-03T05:09:03.469Z,21.14
2022-08-03T05:10:14.811Z,21.23
2022-08-03T05:11:18.820Z,21.33
2022-08-03T05:12:21.011Z,21.40
2022-08-03T05:13:23.191Z,21.46
2022-08-03T05:14:28.038Z,21.54
2022-08-03T05:15:30.580Z,21.61
2022-08-03T05:16:32.785Z,21.67
2022-08-03T05:17:34.993Z,21.74
2022-08-03T05:18:37.392Z,21.82
2022-08-03T05:19:39.610Z,21.87
2022-08-03T05:20:41.826Z,21.93
2022-08-03T05:21:52.168Z,22.00
2022-08-03T05:22:55.320Z,22.08
2022-08-03T05:23:57.523Z,22.16
2022-08-03T05:25:04.184Z,22.23
2022-08-03T05:26:06.508Z,22.32
2022-08-03T05:27:08.732Z,22.38
2022-08-03T05:28:10.931Z,22.46
2022-08-03T05:29:13.175Z,22.51
2022-08-03T05:30:31.335Z,22.60
2022-08-03T05:31:36.519Z,22.67
2022-08-03T05:32:38.690Z,22.77
2022-08-03T05:33:41.128Z,22.85
2022-08-03T05:34:44.034Z,22.91
2022-08-03T05:35:56.157Z,22.99
2022-08-03T05:37:07.412Z,23.09
2022-08-03T05:38:10.277Z,23.16
2022-08-03T05:39:12.826Z,23.22
2022-08-03T05:40:15.122Z,23.31
2022-08-03T05:41:22.508Z,23.39
2022-08-03T05:42:26.304Z,23.46
2022-08-03T05:43:32.112Z,23.54
2022-08-03T05:44:34.456Z,23.63
2022-08-03T05:45:38.286Z,23.70
2022-08-03T05:46:40.478Z,23.77
2022-08-03T05:47:44.376Z,23.85
2022-08-03T05:48:47.067Z,23.93
2022-08-03T05:49:49.257Z,23.98
2022-08-03T05:50:51.535Z,24.07
2022-08-03T05:51:59.989Z,24.15
2022-08-03T05:53:12.259Z,24.27
2022-08-03T05:54:14.428Z,24.33
2022-08-03T05:55:16.780Z,24.44
2022-08-03T05:56:24.176Z,24.52
2022-08-03T05:57:26.519Z,24.62
2022-08-03T05:58:29.991Z,24.70
2022-08-03T05:59:39.230Z,24.79
2022-08-03T06:00:54.670Z,24.90
2022-08-03T06:01:56.944Z,24.95
2022-08-03T06:02:59.280Z,25.03
2022-08-03T06:04:01.807Z,25.09
2022-08-03T06:05:05.019Z,25.19
2022-08-03T06:06:07.220Z,25.28
2022-08-03T06:07:09.465Z,25.38
2022-08-03T06:08:11.789Z,25.47
2022-08-03T06:09:18.070Z,25.54
2022-08-03T06:10:34.958Z,25.62
2022-08-03T06:11:41.585Z,25.71
2022-08-03T06:12:49.355Z,25.77
2022-08-03T06:13:51.544Z,25.85
2022-08-03T06:14:53.731Z,25.91
2022-08-03T06:15:55.941Z,25.99
2022-08-03T06:16:58.184Z,26.07
2022-08-03T06:18:02.193Z,26.15
2022-08-03T06:19:04.634Z,26.23
2022-08-03T06:20:07.194Z,26.31
2022-08-03T06:21:15.180Z,26.41
2022-08-03T06:22:18.710Z,26.49
2022-08-03T06:23:21.064Z,26.57
2022-08-03T06:24:25.966Z,26.65
2022-08-03T06:25:31.436Z,26.75
2022-08-03T06:26:33.622Z,26.84
2022-08-03T06:27:40.051Z,26.92
2022-08-03T06:28:51.643Z,27.03
2022-08-03T06:29:56.258Z,27.13
2022-08-03T06:30:58.646Z,27.24
2022-08-03T06:32:00.885Z,27.34
2022-08-03T06:33:03.211Z,27.43
2022-08-03T06:34:32.733Z,27.54
2022-08-03T06:35:28.419Z,27.68
2022-08-03T06:36:31.724Z,27.78
2022-08-03T06:37:45.758Z,27.91
2022-08-03T06:38:48.006Z,28.00
2022-08-03T06:39:50.285Z,28.08
2022-08-03T06:40:52.494Z,28.19
2022-08-03T06:41:54.748Z,28.28
2022-08-03T06:42:59.130Z,28.40
2022-08-03T06:44:03.984Z,28.52
2022-08-03T06:45:08.971Z,28.61
2022-08-03T06:46:11.331Z,28.73
2022-08-03T06:47:13.547Z,28.85
2022-08-03T06:48:15.755Z,28.95
2022-08-03T06:49:18.129Z,29.06
2022-08-03T06:50:26.047Z,29.18
2022-08-03T06:52:04.441Z,29.29
2022-08-03T06:52:52.057Z,29.43
2022-08-03T06:53:54.228Z,29.57
2022-08-03T06:54:56.471Z,29.68
2022-08-03T06:55:58.697Z,29.78
2022-08-03T06:57:01.188Z,29.88
2022-08-03T06:58:03.825Z,30.01
2022-08-03T06:59:06.056Z,30.11
2022-08-03T07:00:12.712Z,30.23
2022-08-03T07:01:15.317Z,30.35
2022-08-03T07:02:21.287Z,30.48
2022-08-03T07:03:23.766Z,30.60
2022-08-03T07:04:25.964Z,30.72
2022-08-03T07:05:28.633Z,30.85
2022-08-03T07:06:31.761Z,30.97
2022-08-03T07:07:33.967Z,31.08
2022-08-03T07:08:36.275Z,31.21
2022-08-03T07:09:38.512Z,31.32
2022-08-03T07:10:45.098Z,31.46
2022-08-03T07:11:47.333Z,31.57
2022-08-03T07:12:55.927Z,31.68
2022-08-03T07:13:59.017Z,31.83
2022-08-03T07:15:03.595Z,31.94
2022-08-03T07:16:06.044Z,32.06
2022-08-03T07:17:11.798Z,32.16
2022-08-03T07:18:14.385Z,32.28
2022-08-03T07:19:16.726Z,32.40
2022-08-03T07:20:19.747Z,32.52
2022-08-03T07:21:22.033Z,32.65
2022-08-03T07:22:24.308Z,32.75
2022-08-03T07:23:26.595Z,32.87
2022-08-03T07:24:29.294Z,32.99
2022-08-03T07:25:31.566Z,33.08
2022-08-03T07:26:33.833Z,33.20
2022-08-03T07:27:37.246Z,33.30
2022-08-03T07:28:39.513Z,33.42
2022-08-03T07:29:41.735Z,33.53
2022-08-03T07:30:43.930Z,33.64
2022-08-03T07:31:46.195Z,33.75
2022-08-03T07:32:50.306Z,33.86
2022-08-03T07:33:53.824Z,33.97
2022-08-03T07:35:00.613Z,34.07
2022-08-03T07:36:04.187Z,34.18
2022-08-03T07:37:07.362Z,34.29
2022-08-03T07:38:09.576Z,34.38
2022-08-03T07:39:17.674Z,34.49
2022-08-03T07:40:20.773Z,34.60
2022-08-03T07:41:23.007Z,34.69
2022-08-03T07:42:25.689Z,34.80
2022-08-03T07:43:27.985Z,34.90
2022-08-03T07:44:30.170Z,35.00
2022-08-03T07:45:32.712Z,35.10
2022-08-03T07:46:35.053Z,35.19
2022-08-03T07:47:37.269Z,35.28
2022-08-03T07:48:39.647Z,35.39
2022-08-03T07:49:41.964Z,35.47
2022-08-03T07:50:44.328Z,35.59
2022-08-03T07:52:06.557Z,35.67
2022-08-03T07:53:08.922Z,35.80
2022-08-03T07:54:11.148Z,35.90
2022-08-03T07:55:14.130Z,35.99
2022-08-03T07:56:19.112Z,36.10
2022-08-03T07:57:21.330Z,36.21
2022-08-03T07:58:24.595Z,36.28
2022-08-03T07:59:26.814Z,36.36
2022-08-03T08:00:29.060Z,36.46
2022-08-03T08:01:32.958Z,36.55
2022-08-03T08:02:35.526Z,36.63
2022-08-03T08:03:52.207Z,36.72
2022-08-03T08:04:55.482Z,36.81
2022-08-03T08:05:58.116Z,36.90
2022-08-03T08:07:00.311Z,36.95
2022-08-03T08:08:03.475Z,37.03
2022-08-03T08:09:05.681Z,37.12
2022-08-03T08:10:10.521Z,37.20
2022-08-03T08:11:13.129Z,37.27
2022-08-03T08:12:16.103Z,37.35
2022-08-03T08:13:18.584Z,37.44
2022-08-03T08:14:20.906Z,37.50
2022-08-03T08:15:25.756Z,37.57
2022-08-03T08:16:28.380Z,37.61
2022-08-03T08:17:30.663Z,37.67
2022-08-03T08:18:32.988Z,37.74
2022-08-03T08:19:36.798Z,37.80
2022-08-03T08:20:43.681Z,37.85
2022-08-03T08:21:53.804Z,37.91
2022-08-03T08:23:24.873Z,37.96
2022-08-03T08:24:32.794Z,38.03
2022-08-03T08:25:36.927Z,38.08
2022-08-03T08:26:39.083Z,38.12
2022-08-03T08:28:30.484Z,38.18
2022-08-03T08:29:08.342Z,38.24
2022-08-03T08:30:13.875Z,38.31
2022-08-03T08:31:18.466Z,38.35
2022-08-03T08:32:20.696Z,38.41
2022-08-03T08:33:24.043Z,38.46
2022-08-03T08:34:26.826Z,38.53
2022-08-03T08:35:29.148Z,38.56
2022-08-03T08:36:35.088Z,38.61
2022-08-03T08:37:37.398Z,38.67
2022-08-03T08:38:42.714Z,38.71
2022-08-03T08:39:44.958Z,38.74
2022-08-03T08:40:50.168Z,38.78
2022-08-03T08:41:53.401Z,38.81
2022-08-03T08:42:58.871Z,38.86
2022-08-03T08:44:02.338Z,38.89
2022-08-03T08:45:06.594Z,38.93
2022-08-03T08:46:19.214Z,38.97
2022-08-03T08:47:30.716Z,39.00
2022-08-03T08:48:54.518Z,39.05
2022-08-03T08:50:09.841Z,39.09
2022-08-03T08:51:22.788Z,39.14
2022-08-03T08:52:31.806Z,39.18
2022-08-03T08:53:38.942Z,39.21
2022-08-03T08:54:44.792Z,39.25
2022-08-03T08:55:58.351Z,39.29
2022-08-03T08:57:12.414Z,39.31
2022-08-03T08:58:30.341Z,39.36
2022-08-03T08:59:48.017Z,39.38
2022-08-03T09:00:52.500Z,39.41
2022-08-03T09:01:58.747Z,39.43
2022-08-03T09:03:02.030Z,39.45
2022-08-03T09:04:07.424Z,39.49
2022-08-03T09:05:14.933Z,39.53
2022-08-03T09:06:17.482Z,39.55
2022-08-03T09:07:20.748Z,39.56
2022-08-03T09:08:23.416Z,39.59
2022-08-03T09:10:05.940Z,39.60
2022-08-03T09:10:48.163Z,39.63
2022-08-03T09:11:53.440Z,39.65
2022-08-03T09:13:03.717Z,39.67
2022-08-03T09:14:06.147Z,39.72
2022-08-03T09:15:32.317Z,39.76
2022-08-03T09:16:34.517Z,39.78
2022-08-03T09:17:42.506Z,39.82
2022-08-03T09:18:49.251Z,39.83
2022-08-03T09:20:10.648Z,39.87
2022-08-03T09:21:31.259Z,39.87
2022-08-03T09:22:34.183Z,39.88
2022-08-03T09:24:01.595Z,39.90
2022-08-03T09:25:24.655Z,39.92
2022-08-03T09:26:29.793Z,39.92
2022-08-03T09:27:45.985Z,39.96
2022-08-03T09:29:04.668Z,39.98
2022-08-03T09:30:33.460Z,40.02
2022-08-03T09:31:45.836Z,40.04
2022-08-03T09:32:48.298Z,40.06
2022-08-03T09:33:50.600Z,40.08
2022-08-03T09:34:58.040Z,40.10
2022-08-03T09:36:00.541Z,40.10
2022-08-03T09:37:02.781Z,40.12
2022-08-03T09:38:29.611Z,40.13
2022-08-03T09:39:41.915Z,40.13
2022-08-03T09:40:46.361Z,40.14
2022-08-03T09:42:05.978Z,40.15
2022-08-03T09:43:08.985Z,40.15
2022-08-03T09:44:24.581Z,40.16
2022-08-03T09:45:28.552Z,40.15
2022-08-03T09:46:32.133Z,40.15
2022-08-03T09:47:36.807Z,40.16
2022-08-03T09:48:46.993Z,40.15
2022-08-03T09:50:05.162Z,40.15
2022-08-03T09:51:13.252Z,40.15
2022-08-03T09:52:48.341Z,40.15
2022-08-03T09:54:00.347Z,40.14
2022-08-03T09:56:05.220Z,40.16
2022-08-03T09:56:58.344Z,40.14
2022-08-03T09:58:09.574Z,40.10
2022-08-03T09:59:14.211Z,40.06
2022-08-03T10:00:17.862Z,40.02
2022-08-03T10:01:24.210Z,39.99
2022-08-03T10:02:27.884Z,39.97
2022-08-03T10:03:35.215Z,39.95
2022-08-03T10:04:47.566Z,39.93
2022-08-03T10:05:49.886Z,39.90
2022-08-03T10:07:10.107Z,39.87
2022-08-03T10:08:16.794Z,39.86
2022-08-03T10:09:21.965Z,39.85
2022-08-03T10:10:30.371Z,39.83
2022-08-03T10:11:41.793Z,39.79
2022-08-03T10:12:48.204Z,39.78
2022-08-03T10:13:52.468Z,39.77
2022-08-03T10:15:03.735Z,39.75
2022-08-03T10:16:21.662Z,39.73
2022-08-03T10:17:27.313Z,39.72
2022-08-03T10:18:29.600Z,39.69
2022-08-03T10:19:32.009Z,39.68
2022-08-03T10:20:45.664Z,39.70
2022-08-03T10:21:55.631Z,39.68
2022-08-03T10:22:58.509Z,39.66
2022-08-03T10:24:05.465Z,39.65
2022-08-03T10:25:11.604Z,39.65
2022-08-03T10:26:19.351Z,39.63
2022-08-03T10:27:24.115Z,39.61
2022-08-03T10:28:32.395Z,39.59
2022-08-03T10:29:40.287Z,39.60
2022-08-03T10:30:45.760Z,39.58
2022-08-03T10:31:58.019Z,39.57
2022-08-03T10:33:50.869Z,39.52
2022-08-03T10:34:44.522Z,39.45
2022-08-03T10:35:52.791Z,39.43
2022-08-03T10:36:59.446Z,39.40
2022-08-03T10:38:09.815Z,39.35
2022-08-03T10:39:16.251Z,39.31
2022-08-03T10:40:39.484Z,39.26
2022-08-03T10:41:47.239Z,39.20
2022-08-03T10:42:54.456Z,39.17
2022-08-03T10:44:02.290Z,39.14
2022-08-03T10:45:08.109Z,39.10
2022-08-03T10:46:10.374Z,39.08
2022-08-03T10:47:18.374Z,39.05
2022-08-03T10:48:24.949Z,39.02
2022-08-03T10:49:34.667Z,39.00
2022-08-03T10:50:39.153Z,38.97
2022-08-03T10:51:43.116Z,38.94
2022-08-03T10:53:01.975Z,38.91
2022-08-03T10:54:06.216Z,38.87
2022-08-03T10:55:55.203Z,38.86
2022-08-03T10:57:16.473Z,38.83
2022-08-03T10:58:53.254Z,38.79
2022-08-03T11:00:00.754Z,38.76
2022-08-03T11:01:09.002Z,38.74
2022-08-03T11:02:12.595Z,38.71
2022-08-03T11:03:14.882Z,38.68
2022-08-03T11:04:19.021Z,38.65
2022-08-03T11:05:29.101Z,38.64
2022-08-03T11:06:37.432Z,38.60
2022-08-03T11:07:40.056Z,38.56
2022-08-03T11:08:42.316Z,38.52
2022-08-03T11:09:49.973Z,38.49
2022-08-03T11:10:58.279Z,38.45
2022-08-03T11:12:31.342Z,38.42
2022-08-03T11:13:34.250Z,38.37
2022-08-03T11:14:48.323Z,38.34
2022-08-03T11:15:54.111Z,38.30
2022-08-03T11:17:14.117Z,38.25
2022-08-03T11:18:18.219Z,38.23
2022-08-03T11:19:28.544Z,38.20
2022-08-03T11:20:51.145Z,38.17
2022-08-03T11:21:55.259Z,38.13
2022-08-03T11:22:59.722Z,38.11
2022-08-03T11:24:04.335Z,38.07
2022-08-03T11:25:54.612Z,38.04
2022-08-03T11:26:34.653Z,37.99
2022-08-03T11:27:37.738Z,37.96
2022-08-03T11:28:46.995Z,37.92
2022-08-03T11:30:22.323Z,37.89
2022-08-03T11:31:50.180Z,37.78
2022-08-03T11:32:56.961Z,37.72
2022-08-03T11:34:16.519Z,37.68
2022-08-03T11:35:21.838Z,37.63
2022-08-03T11:36:32.090Z,37.58
2022-08-03T11:37:35.071Z,37.55
2022-08-03T11:39:12.523Z,37.49
2022-08-03T11:40:47.226Z,37.43
2022-08-03T11:41:58.620Z,37.39
2022-08-03T11:43:00.818Z,37.36
2022-08-03T11:44:03.148Z,37.31
2022-08-03T11:45:07.807Z,37.28
2022-08-03T11:46:29.956Z,37.24
2022-08-03T11:47:37.407Z,37.17
2022-08-03T11:48:53.355Z,37.14
2022-08-03T11:49:59.293Z,37.10
2022-08-03T11:51:18.618Z,37.10
2022-08-03T11:52:26.995Z,37.06
2022-08-03T11:53:31.165Z,37.03
2022-08-03T11:54:35.713Z,37.02
2022-08-03T11:55:38.547Z,36.97
2022-08-03T11:56:49.544Z,36.94
2022-08-03T11:59:01.120Z,36.90
2022-08-03T11:59:20.440Z,36.88
2022-08-03T12:00:27.965Z,36.87
2022-08-03T12:01:31.593Z,36.86
2022-08-03T12:02:38.941Z,36.84
2022-08-03T12:03:41.280Z,36.82
2022-08-03T12:04:51.423Z,36.81
2022-08-03T12:05:54.735Z,36.80
2022-08-03T12:07:03.791Z,36.80
2022-08-03T12:08:07.412Z,36.77
2022-08-03T12:09:16.250Z,36.78
2022-08-03T12:10:18.572Z,36.77
2022-08-03T12:11:21.947Z,36.76
2022-08-03T12:12:24.148Z,36.76
2022-08-03T12:14:33.139Z,36.76
2022-08-03T12:15:03.541Z,36.76
2022-08-03T12:16:05.899Z,36.75
2022-08-03T12:17:08.102Z,36.73
2022-08-03T12:18:16.466Z,36.73
2022-08-03T12:19:18.699Z,36.72
2022-08-03T12:20:34.458Z,36.71
2022-08-03T12:21:56.985Z,36.69
2022-08-03T12:23:06.614Z,36.69
2022-08-03T12:24:09.180Z,36.66
2022-08-03T12:25:39.123Z,36.65
2022-08-03T12:26:58.816Z,36.63
2022-08-03T12:28:36.294Z,36.61
2022-08-03T12:29:42.780Z,36.58
2022-08-03T12:31:07.600Z,36.57
2022-08-03T12:32:15.862Z,36.55
2022-08-03T12:33:26.263Z,36.55
2022-08-03T12:34:48.514Z,36.51
2022-08-03T12:36:02.458Z,36.49
2022-08-03T12:37:05.238Z,36.47
2022-08-03T12:38:24.715Z,36.44
2022-08-03T12:39:30.918Z,36.42
2022-08-03T12:40:33.646Z,36.39
2022-08-03T12:41:38.038Z,36.39
2022-08-03T12:42:40.947Z,36.36
2022-08-03T12:43:49.717Z,36.34
2022-08-03T12:44:56.384Z,36.32
2022-08-03T12:46:13.120Z,36.30
2022-08-03T12:47:16.145Z,36.29
2022-08-03T12:48:18.368Z,36.28
2022-08-03T12:49:26.493Z,36.26
2022-08-03T12:50:32.000Z,36.24
2022-08-03T12:51:57.378Z,36.23
2022-08-03T12:53:01.610Z,36.20
2022-08-03T12:54:05.112Z,36.20
2022-08-03T12:55:07.764Z,36.16
2022-08-03T12:56:09.974Z,36.16
2022-08-03T12:57:15.699Z,36.13
2022-08-03T12:58:34.189Z,36.11
2022-08-03T12:59:52.878Z,36.10
2022-08-03T13:00:58.725Z,36.09
2022-08-03T13:02:02.320Z,36.07
2022-08-03T13:04:35.287Z,36.03
2022-08-03T13:05:44.951Z,36.01
2022-08-03T13:07:02.486Z,35.99
2022-08-03T13:08:21.157Z,35.98
2022-08-03T13:09:25.463Z,35.95
2022-08-03T13:10:30.665Z,35.92
2022-08-03T13:11:57.218Z,35.90
2022-08-03T13:12:59.233Z,35.85
2022-08-03T13:14:02.943Z,35.84
2022-08-03T13:15:05.662Z,35.81
2022-08-03T13:16:07.854Z,35.78
2022-08-03T13:17:16.602Z,35.76
2022-08-03T13:18:19.038Z,35.74
2022-08-03T13:19:21.280Z,35.72
2022-08-03T13:20:24.169Z,35.71
2022-08-03T13:21:28.849Z,35.69
2022-08-03T13:22:40.293Z,35.68
2022-08-03T13:23:43.355Z,35.67
2022-08-03T13:24:51.277Z,35.65
2022-08-03T13:25:55.649Z,35.65
2022-08-03T13:26:58.788Z,35.63
2022-08-03T13:28:05.903Z,35.61
2022-08-03T13:29:09.121Z,35.60
2022-08-03T13:30:11.677Z,35.58
2022-08-03T13:31:16.238Z,35.57
2022-08-03T13:32:19.672Z,35.56
2022-08-03T13:33:22.019Z,35.54
2022-08-03T13:34:26.804Z,35.51
2022-08-03T13:35:31.634Z,35.49
2022-08-03T13:37:07.473Z,35.47
2022-08-03T13:38:02.064Z,35.44
2022-08-03T13:39:09.092Z,35.44
2022-08-03T13:40:11.886Z,35.42
2022-08-03T13:41:16.977Z,35.39
2022-08-03T13:42:20.098Z,35.37
2022-08-03T13:43:22.616Z,35.36
2022-08-03T13:44:29.540Z,35.34
2022-08-03T13:45:32.261Z,35.34
2022-08-03T13:46:34.604Z,35.32
2022-08-03T13:47:38.052Z,35.30
2022-08-03T13:48:40.285Z,35.30
2022-08-03T13:49:42.676Z,35.29
2022-08-03T13:51:02.536Z,35.29
2022-08-03T13:52:07.702Z,35.27
2022-08-03T13:53:09.969Z,35.26
2022-08-03T13:54:12.704Z,35.26
2022-08-03T13:55:15.712Z,35.26
2022-08-03T13:56:18.263Z,35.26
2022-08-03T13:58:03.345Z,35.25
2022-08-03T13:58:42.660Z,35.25
2022-08-03T13:59:44.850Z,35.26
2022-08-03T14:00:47.128Z,35.25
2022-08-03T14:01:55.441Z,35.26
2022-08-03T14:03:06.735Z,35.25
2022-08-03T14:04:15.898Z,35.26
2022-08-03T14:05:24.570Z,35.27
2022-08-03T14:06:26.898Z,35.27
2022-08-03T14:07:29.107Z,35.27
2022-08-03T14:08:31.273Z,35.27
2022-08-03T14:09:33.488Z,35.28
2022-08-03T14:10:38.065Z,35.27
2022-08-03T14:12:07.483Z,35.26
2022-08-03T14:13:12.229Z,35.26
2022-08-03T14:14:17.145Z,35.25
2022-08-03T14:15:19.484Z,35.24
2022-08-03T14:16:21.812Z,35.23
2022-08-03T14:17:24.065Z,35.22
2022-08-03T14:18:33.541Z,35.20
2022-08-03T14:19:52.547Z,35.18
2022-08-03T14:21:00.653Z,35.17
2022-08-03T14:22:07.179Z,35.17
2022-08-03T14:23:09.445Z,35.15
2022-08-03T14:24:11.719Z,35.13
2022-08-03T14:25:14.005Z,35.10
2022-08-03T14:26:20.490Z,35.07
2022-08-03T14:27:22.984Z,35.07
2022-08-03T14:28:25.571Z,35.03
2022-08-03T14:29:27.798Z,35.03
2022-08-03T14:30:33.060Z,35.02